Time;durP1;ratioP1;P1;durP2;ratioP2;P2;SDS_P1;SDS_P2;PMS_P1;PMS_P2;Temp;Humidity;BMP_temperature;BMP_pressure;BME280_temperature;BME280_humidity;BME280_pressure;Samples;Min_cycle;Max_cycle;Signal;HPM_P1;HPM_P2
2022/04/23 00:11:17;;;;;;;27.07;12.63;;;;;;;8.54;69.10;99931.66;714574;1173;115207;-75
2022/04/23 00:26:21;;;;;;;16.83;9.37;;;;;;;8.42;69.13;99909.97;714744;1173;115692;-75
2022/04/23 00:56:48;;;;;;;17.43;10.07;;;;;;;8.03;71.34;99900.14;714639;1174;113918;-75
2022/04/23 01:11:53;;;;;;;18.88;9.75;;;;;;;8.06;70.78;99891.22;715228;1174;115441;-76
2022/04/23 01:26:57;;;;;;;15.33;9.28;;;;;;;7.94;71.73;99888.66;715586;1174;114471;-76
2022/04/23 01:42:01;;;;;;;18.28;9.33;;;;;;;8.06;72.30;99886.81;715256;1174;114413;-75
2022/04/23 01:57:05;;;;;;;21.25;11.95;;;;;;;7.68;72.07;99879.56;714563;1174;114683;-75
2022/04/23 02:12:09;;;;;;;63.78;24.93;;;;;;;7.54;73.14;99862.44;714823;1174;114527;-75
2022/04/23 02:27:13;;;;;;;44.15;19.33;;;;;;;7.20;73.37;99873.00;715101;1174;115330;-76
2022/04/23 02:42:17;;;;;;;36.40;17.43;;;;;;;7.00;73.71;99870.20;714077;1173;114579;-76
2022/04/23 02:57:21;;;;;;;29.07;13.97;;;;;;;6.86;73.64;99863.46;714938;1174;114407;-76
2022/04/23 03:12:24;;;;;;;42.23;19.48;;;;;;;6.76;74.05;99863.38;714259;1174;114045;-75
2022/04/23 03:27:30;;;;;;;53.45;21.90;;;;;;;6.49;73.97;99856.77;715228;1173;113969;-76
2022/04/23 03:42:35;;;;;;;59.18;23.80;;;;;;;6.59;75.20;99853.45;714684;1174;115451;-76
2022/04/23 03:57:49;;;;;;;81.10;26.33;;;;;;;6.63;75.53;99829.61;714679;1174;115112;-76
2022/04/23 04:12:53;;;;;;;50.45;21.68;;;;;;;6.84;76.02;99836.70;714461;1173;115515;-74
2022/04/23 04:28:00;;;;;;;34.97;14.47;;;;;;;7.20;76.76;99841.69;714373;1174;114635;-75
2022/04/23 04:43:04;;;;;;;28.75;13.00;;;;;;;7.61;77.07;99812.17;714227;1174;114489;-75
2022/04/23 04:58:09;;;;;;;17.77;9.87;;;;;;;8.02;77.53;99808.84;714134;1174;114420;-75
2022/04/23 05:13:12;;;;;;;15.48;8.25;;;;;;;8.62;78.60;99790.66;714630;1174;114136;-76
2022/04/23 05:28:15;;;;;;;14.43;8.43;;;;;;;9.23;78.09;99792.20;714365;1173;114205;-75
2022/04/23 05:43:19;;;;;;;19.25;10.05;;;;;;;9.88;77.77;99795.95;714206;1173;114626;-73
2022/04/23 05:58:24;;;;;;;12.50;7.08;;;;;;;10.50;76.50;99809.38;714263;1174;115445;-73
2022/04/23 06:13:27;;;;;;;15.05;7.68;;;;;;;11.08;76.34;99799.48;713887;1174;114919;-74
2022/04/23 06:28:31;;;;;;;11.53;6.93;;;;;;;11.96;75.04;99799.48;715070;1173;115393;-80
2022/04/23 06:43:34;;;;;;;15.10;7.50;;;;;;;12.74;74.00;99788.94;715395;1174;115481;-82
2022/04/23 06:58:38;;;;;;;9.75;5.98;;;;;;;13.64;71.58;99785.52;714264;1174;115475;-76
2022/04/23 07:13:43;;;;;;;7.60;5.65;;;;;;;14.81;68.71;99777.01;715159;1174;113966;-80
2022/04/23 07:28:46;;;;;;;16.70;7.83;;;;;;;16.23;66.79;99757.00;715020;1174;115253;-78
2022/04/23 07:43:50;;;;;;;8.10;6.13;;;;;;;17.20;63.88;99749.67;714202;1174;115628;-78
2022/04/23 07:58:53;;;;;;;7.53;4.70;;;;;;;16.89;61.79;99748.14;713900;1174;115355;-78
2022/04/23 08:13:58;;;;;;;9.38;6.40;;;;;;;17.10;60.62;99747.33;714571;1174;114892;-77
2022/04/23 08:44:24;;;;;;;8.67;5.27;;;;;;;20.06;57.29;99723.97;714049;1174;115609;-77
2022/04/23 08:59:28;;;;;;;6.30;4.35;;;;;;;20.38;55.44;99721.34;714084;1174;114787;-79
2022/04/23 09:14:33;;;;;;;7.43;5.13;;;;;;;20.27;53.97;99698.04;714307;1174;115529;-76
2022/04/23 09:29:37;;;;;;;9.68;4.63;;;;;;;20.52;52.22;99686.63;713790;1174;114731;-76
2022/04/23 09:44:42;;;;;;;6.88;4.78;;;;;;;19.78;51.84;99689.63;713346;1174;113908;-76
2022/04/23 09:59:46;;;;;;;7.70;4.63;;;;;;;18.99;52.80;99670.16;713972;1174;115031;-76
2022/04/23 10:14:56;;;;;;;11.20;5.38;;;;;;;18.43;51.93;99672.95;715346;1174;114798;-75
2022/04/23 10:30:04;;;;;;;7.13;4.48;;;;;;;18.43;52.31;99688.88;714658;1174;114749;-77
2022/04/23 10:45:13;;;;;;;6.50;4.50;;;;;;;21.16;51.22;99665.25;713900;1172;115215;-77
2022/04/23 11:00:19;;;;;;;5.63;3.73;;;;;;;21.74;49.93;99664.84;714358;1174;113942;-76
2022/04/23 11:15:22;;;;;;;19.73;8.08;;;;;;;20.49;48.53;99665.77;714415;1174;115534;-76
2022/04/23 11:30:29;;;;;;;15.37;11.13;;;;;;;18.06;53.07;99671.64;714765;1174;114995;-78
2022/04/23 11:45:47;;;;;;;4.75;3.83;;;;;;;17.84;53.43;99654.99;714604;1174;116497;-77
2022/04/23 12:00:52;;;;;;;18.43;9.45;;;;;;;18.03;52.81;99653.47;714379;1173;115127;-76
2022/04/23 12:15:56;;;;;;;7.20;5.00;;;;;;;18.44;53.30;99631.30;715337;1174;115393;-84
2022/04/23 12:46:24;;;;;;;13.53;7.75;;;;;;;22.10;47.74;99592.91;714264;1174;115033;-74
2022/04/23 13:01:28;;;;;;;37.88;22.10;;;;;;;21.23;47.03;99597.45;714322;1174;114515;-77
2022/04/23 13:16:36;;;;;;;6.90;4.35;;;;;;;21.30;46.82;99591.24;714930;1174;115137;-83
2022/04/23 13:31:40;;;;;;;5.33;3.28;;;;;;;23.01;45.83;99560.58;714640;1174;114375;-80
2022/04/23 13:46:45;;;;;;;8.17;4.70;;;;;;;23.78;44.92;99547.91;713944;1174;115032;-80
2022/04/23 14:17:12;;;;;;;8.93;3.85;;;;;;;31.90;39.90;99545.16;715275;1174;114170;-82
2022/04/23 14:32:16;;;;;;;5.73;2.95;;;;;;;32.16;36.94;99555.56;714275;1173;115584;-77
2022/04/23 14:47:19;;;;;;;10.20;4.50;;;;;;;29.28;37.19;99556.66;714005;1174;114158;-77
2022/04/23 15:02:24;;;;;;;21.18;16.03;;;;;;;24.21;39.66;99543.06;714009;1174;115599;-76
2022/04/23 15:17:30;;;;;;;10.23;6.20;;;;;;;31.48;37.70;99544.13;713858;1174;114343;-77
2022/04/23 15:32:34;;;;;;;7.30;4.77;;;;;;;24.96;39.97;99545.52;713828;1173;114857;-78
2022/04/23 15:47:37;;;;;;;20.60;8.07;;;;;;;22.29;41.80;99542.91;714078;1174;115287;-77
2022/04/23 16:02:41;;;;;;;8.90;4.63;;;;;;;20.24;43.46;99546.70;714229;1174;114073;-78
2022/04/23 16:17:45;;;;;;;10.10;5.53;;;;;;;19.48;44.88;99566.97;713766;1174;114629;-72
2022/04/23 16:32:49;;;;;;;10.95;5.75;;;;;;;18.71;45.94;99563.04;714043;1173;115341;-77
2022/04/23 16:47:54;;;;;;;8.40;4.70;;;;;;;18.35;47.25;99558.17;714067;1174;115194;-74
2022/04/23 17:02:58;;;;;;;8.57;4.97;;;;;;;17.98;47.56;99563.84;714004;1174;114693;-79
2022/04/23 17:18:02;;;;;;;8.47;4.60;;;;;;;17.23;49.21;99561.91;713959;1173;115635;-71
2022/04/23 17:33:05;;;;;;;22.40;8.68;;;;;;;16.64;50.62;99571.09;714083;1174;115847;-75
2022/04/23 17:48:09;;;;;;;35.03;17.18;;;;;;;15.94;52.68;99562.94;713728;1174;115261;-79
2022/04/23 18:18:37;;;;;;;15.23;7.43;;;;;;;14.71;55.09;99559.94;715393;1174;115363;-80
2022/04/23 18:33:42;;;;;;;9.23;4.50;;;;;;;14.00;57.12;99566.23;714666;1173;115922;-79
2022/04/23 18:48:47;;;;;;;19.75;9.05;;;;;;;13.58;57.61;99581.48;714203;1174;114892;-80
2022/04/23 19:03:52;;;;;;;53.00;18.05;;;;;;;13.38;59.16;99582.88;713773;1174;114909;-80
2022/04/23 19:18:58;;;;;;;82.45;27.23;;;;;;;13.08;60.40;99566.83;714494;1174;114281;-80
2022/04/23 19:34:03;;;;;;;42.25;14.85;;;;;;;12.55;61.16;99559.34;715325;1174;115556;-74
2022/04/23 19:49:09;;;;;;;37.13;15.20;;;;;;;12.12;62.39;99554.23;716204;1174;114949;-75
2022/04/23 20:04:13;;;;;;;34.93;13.27;;;;;;;11.65;63.38;99555.61;715165;1174;114899;-74
2022/04/23 20:19:17;;;;;;;42.75;13.80;;;;;;;11.10;65.10;99563.93;714770;1174;114954;-74
2022/04/23 20:34:22;;;;;;;108.93;38.77;;;;;;;10.92;66.23;99570.05;715361;1174;115582;-75
2022/04/23 20:49:33;;;;;;;44.25;19.15;;;;;;;11.05;66.23;99555.70;715675;1173;115649;-75
2022/04/23 21:04:36;;;;;;;38.08;13.48;;;;;;;10.69;67.03;99563.66;714831;1174;114618;-76
2022/04/23 21:19:40;;;;;;;19.03;8.70;;;;;;;10.19;68.20;99557.17;715133;1174;115291;-74
2022/04/23 21:34:44;;;;;;;15.83;7.30;;;;;;;9.82;69.42;99562.41;714379;1173;115146;-75
2022/04/23 21:49:48;;;;;;;87.20;31.27;;;;;;;9.78;70.29;99561.06;713597;1174;114410;-75
2022/04/23 22:04:51;;;;;;;14.40;8.63;;;;;;;9.23;70.14;99572.36;714109;1174;114687;-74
2022/04/23 22:19:55;;;;;;;18.55;7.10;;;;;;;8.97;72.50;99566.94;713471;1174;115233;-75
2022/04/23 22:34:59;;;;;;;14.53;7.10;;;;;;;8.92;73.95;99566.54;713483;1174;114434;-75
2022/04/23 22:50:04;;;;;;;13.40;7.00;;;;;;;8.86;76.94;99557.48;713562;1174;114237;-75
2022/04/23 23:05:08;;;;;;;10.97;6.13;;;;;;;8.68;78.69;99569.63;713910;1174;114547;-75
2022/04/23 23:20:12;;;;;;;12.80;8.10;;;;;;;8.72;80.59;99556.12;714307;1174;114766;-81
2022/04/23 23:35:16;;;;;;;11.48;6.35;;;;;;;8.98;79.71;99564.17;713620;1174;114132;-81
2022/04/23 23:50:19;;;;;;;13.78;6.00;;;;;;;9.01;80.89;99570.92;713596;1174;113783;-80
